sensor_id;sensor_type;location;lat;lon;timestamp;temperature;humidity
6879;DHT22;3478;51.462;7.338;2023-05-21T00:02:03;13.60;99.90
6879;DHT22;3478;51.462;7.338;2023-05-21T00:07:06;13.60;99.90
6879;DHT22;3478;51.462;7.338;2023-05-21T00:12:09;13.60;99.90
6879;DHT22;3478;51.462;7.338;2023-05-21T00:17:10;13.50;99.90
6879;DHT22;3478;51.462;7.338;2023-05-21T00:22:14;13.50;99.90
6879;DHT22;3478;51.462;7.338;2023-05-21T00:27:16;13.50;99.90
6879;DHT22;3478;51.462;7.338;2023-05-21T00:32:18;13.50;99.90
6879;DHT22;3478;51.462;7.338;2023-05-21T00:37:22;13.50;99.90
6879;DHT22;3478;51.462;7.338;2023-05-21T00:42:24;13.50;99.90
6879;DHT22;3478;51.462;7.338;2023-05-21T00:47:27;13.50;99.90
6879;DHT22;3478;51.462;7.338;2023-05-21T00:52:30;13.50;99.90
6879;DHT22;3478;51.462;7.338;2023-05-21T00:57:34;13.50;99.90
6879;DHT22;3478;51.462;7.338;2023-05-21T01:02:36;13.50;99.90
6879;DHT22;3478;51.462;7.338;2023-05-21T01:07:40;13.50;99.90
6879;DHT22;3478;51.462;7.338;2023-05-21T01:12:43;13.40;99.90
6879;DHT22;3478;51.462;7.338;2023-05-21T01:17:46;13.40;99.90
6879;DHT22;3478;51.462;7.338;2023-05-21T01:22:52;13.40;99.90
6879;DHT22;3478;51.462;7.338;2023-05-21T01:27:54;13.30;99.90
6879;DHT22;3478;51.462;7.338;2023-05-21T01:33:02;13.30;99.90
6879;DHT22;3478;51.462;7.338;2023-05-21T01:38:11;13.30;99.90
6879;DHT22;3478;51.462;7.338;2023-05-21T01:43:14;13.30;99.90
6879;DHT22;3478;51.462;7.338;2023-05-21T01:48:17;13.20;99.90
6879;DHT22;3478;51.462;7.338;2023-05-21T01:53:21;13.20;99.90
6879;DHT22;3478;51.462;7.338;2023-05-21T01:58:23;13.10;99.90
6879;DHT22;3478;51.462;7.338;2023-05-21T02:03:25;13.10;99.90
6879;DHT22;3478;51.462;7.338;2023-05-21T02:08:28;13.10;99.90
6879;DHT22;3478;51.462;7.338;2023-05-21T02:13:30;13.10;99.90
6879;DHT22;3478;51.462;7.338;2023-05-21T02:18:32;13.10;99.90
6879;DHT22;3478;51.462;7.338;2023-05-21T02:23:37;13.00;99.90
6879;DHT22;3478;51.462;7.338;2023-05-21T02:28:39;13.00;99.90
6879;DHT22;3478;51.462;7.338;2023-05-21T02:33:41;13.00;99.90
6879;DHT22;3478;51.462;7.338;2023-05-21T02:38:44;13.00;99.90
6879;DHT22;3478;51.462;7.338;2023-05-21T02:43:47;13.00;99.90
6879;DHT22;3478;51.462;7.338;2023-05-21T02:48:48;12.90;99.90
6879;DHT22;3478;51.462;7.338;2023-05-21T02:53:52;12.90;99.90
6879;DHT22;3478;51.462;7.338;2023-05-21T02:58:53;12.80;99.90
6879;DHT22;3478;51.462;7.338;2023-05-21T03:03:55;12.80;99.90
6879;DHT22;3478;51.462;7.338;2023-05-21T03:08:58;12.80;99.90
6879;DHT22;3478;51.462;7.338;2023-05-21T03:14:01;12.80;99.90
6879;DHT22;3478;51.462;7.338;2023-05-21T03:19:03;12.80;99.90
6879;DHT22;3478;51.462;7.338;2023-05-21T03:24:06;12.80;99.90
6879;DHT22;3478;51.462;7.338;2023-05-21T03:29:09;12.80;99.90
6879;DHT22;3478;51.462;7.338;2023-05-21T03:34:12;12.80;99.90
6879;DHT22;3478;51.462;7.338;2023-05-21T03:39:15;12.80;99.90
6879;DHT22;3478;51.462;7.338;2023-05-21T03:44:17;12.80;99.90
6879;DHT22;3478;51.462;7.338;2023-05-21T03:49:19;12.80;99.90
6879;DHT22;3478;51.462;7.338;2023-05-21T03:54:22;12.80;99.90
6879;DHT22;3478;51.462;7.338;2023-05-21T03:59:24;12.80;99.90
6879;DHT22;3478;51.462;7.338;2023-05-21T04:04:26;12.90;99.90
6879;DHT22;3478;51.462;7.338;2023-05-21T04:09:30;12.90;99.90
6879;DHT22;3478;51.462;7.338;2023-05-21T04:14:32;12.90;99.90
6879;DHT22;3478;51.462;7.338;2023-05-21T04:19:34;12.90;99.90
6879;DHT22;3478;51.462;7.338;2023-05-21T04:24:37;13.00;99.90
6879;DHT22;3478;51.462;7.338;2023-05-21T04:29:39;13.00;99.90
6879;DHT22;3478;51.462;7.338;2023-05-21T04:34:42;13.10;99.90
6879;DHT22;3478;51.462;7.338;2023-05-21T04:39:45;13.10;99.90
6879;DHT22;3478;51.462;7.338;2023-05-21T04:44:47;13.10;99.90
6879;DHT22;3478;51.462;7.338;2023-05-21T04:49:49;13.20;99.90
6879;DHT22;3478;51.462;7.338;2023-05-21T04:54:52;13.20;99.90
6879;DHT22;3478;51.462;7.338;2023-05-21T04:59:54;13.30;99.90
6879;DHT22;3478;51.462;7.338;2023-05-21T05:04:57;13.40;99.90
6879;DHT22;3478;51.462;7.338;2023-05-21T05:10:00;13.40;99.90
6879;DHT22;3478;51.462;7.338;2023-05-21T05:15:02;13.50;99.90
6879;DHT22;3478;51.462;7.338;2023-05-21T05:20:06;13.60;99.90
6879;DHT22;3478;51.462;7.338;2023-05-21T05:25:09;13.70;99.90
6879;DHT22;3478;51.462;7.338;2023-05-21T05:30:11;13.80;99.90
6879;DHT22;3478;51.462;7.338;2023-05-21T05:35:13;13.90;99.90
6879;DHT22;3478;51.462;7.338;2023-05-21T05:40:16;13.90;99.90
6879;DHT22;3478;51.462;7.338;2023-05-21T05:45:18;13.90;99.90
6879;DHT22;3478;51.462;7.338;2023-05-21T05:50:20;14.10;99.90
6879;DHT22;3478;51.462;7.338;2023-05-21T05:55:23;14.10;99.90
6879;DHT22;3478;51.462;7.338;2023-05-21T06:00:26;14.20;99.90
6879;DHT22;3478;51.462;7.338;2023-05-21T06:05:28;14.30;99.90
6879;DHT22;3478;51.462;7.338;2023-05-21T06:10:31;14.40;99.90
6879;DHT22;3478;51.462;7.338;2023-05-21T06:15:33;14.60;99.90
6879;DHT22;3478;51.462;7.338;2023-05-21T06:20:34;14.70;99.90
6879;DHT22;3478;51.462;7.338;2023-05-21T06:25:37;14.90;99.90
6879;DHT22;3478;51.462;7.338;2023-05-21T06:30:40;14.90;99.90
6879;DHT22;3478;51.462;7.338;2023-05-21T06:35:42;15.00;99.90
6879;DHT22;3478;51.462;7.338;2023-05-21T06:40:46;15.20;99.90
6879;DHT22;3478;51.462;7.338;2023-05-21T06:45:48;15.30;99.90
6879;DHT22;3478;51.462;7.338;2023-05-21T06:50:50;15.40;99.90
6879;DHT22;3478;51.462;7.338;2023-05-21T06:55:53;15.50;99.90
6879;DHT22;3478;51.462;7.338;2023-05-21T07:00:55;15.60;99.90
6879;DHT22;3478;51.462;7.338;2023-05-21T07:05:57;15.70;99.90
6879;DHT22;3478;51.462;7.338;2023-05-21T07:11:00;15.80;99.90
6879;DHT22;3478;51.462;7.338;2023-05-21T07:16:02;15.80;99.90
6879;DHT22;3478;51.462;7.338;2023-05-21T07:21:04;16.00;99.90
6879;DHT22;3478;51.462;7.338;2023-05-21T07:26:08;16.10;99.90
6879;DHT22;3478;51.462;7.338;2023-05-21T07:31:10;16.30;99.90
6879;DHT22;3478;51.462;7.338;2023-05-21T07:36:12;16.40;99.90
6879;DHT22;3478;51.462;7.338;2023-05-21T07:41:15;16.50;99.90
6879;DHT22;3478;51.462;7.338;2023-05-21T07:46:17;16.60;99.90
6879;DHT22;3478;51.462;7.338;2023-05-21T07:51:19;16.80;99.90
6879;DHT22;3478;51.462;7.338;2023-05-21T07:56:22;17.00;99.90
6879;DHT22;3478;51.462;7.338;2023-05-21T08:01:24;17.00;99.90
6879;DHT22;3478;51.462;7.338;2023-05-21T08:06:27;17.10;99.90
6879;DHT22;3478;51.462;7.338;2023-05-21T08:11:30;17.30;99.90
6879;DHT22;3478;51.462;7.338;2023-05-21T08:16:32;17.50;99.90
6879;DHT22;3478;51.462;7.338;2023-05-21T08:21:34;17.80;99.90
6879;DHT22;3478;51.462;7.338;2023-05-21T08:26:37;18.20;99.90
6879;DHT22;3478;51.462;7.338;2023-05-21T08:31:39;18.30;99.90
6879;DHT22;3478;51.462;7.338;2023-05-21T08:36:41;18.50;99.90
6879;DHT22;3478;51.462;7.338;2023-05-21T08:41:49;19.10;99.90
6879;DHT22;3478;51.462;7.338;2023-05-21T08:46:55;19.30;99.90
6879;DHT22;3478;51.462;7.338;2023-05-21T08:51:58;19.40;99.90
6879;DHT22;3478;51.462;7.338;2023-05-21T08:57:02;19.60;99.90
6879;DHT22;3478;51.462;7.338;2023-05-21T09:02:05;19.60;99.90
6879;DHT22;3478;51.462;7.338;2023-05-21T09:07:09;19.40;99.90
6879;DHT22;3478;51.462;7.338;2023-05-21T09:12:12;19.30;99.90
6879;DHT22;3478;51.462;7.338;2023-05-21T09:17:14;19.30;99.90
6879;DHT22;3478;51.462;7.338;2023-05-21T09:22:16;19.70;99.90
6879;DHT22;3478;51.462;7.338;2023-05-21T09:27:19;20.20;99.90
6879;DHT22;3478;51.462;7.338;2023-05-21T09:32:21;20.50;99.90
6879;DHT22;3478;51.462;7.338;2023-05-21T09:37:23;20.70;99.90
6879;DHT22;3478;51.462;7.338;2023-05-21T09:42:30;20.50;99.90
6879;DHT22;3478;51.462;7.338;2023-05-21T09:47:32;20.60;99.90
6879;DHT22;3478;51.462;7.338;2023-05-21T09:52:35;21.20;99.90
6879;DHT22;3478;51.462;7.338;2023-05-21T09:57:41;21.40;99.90
6879;DHT22;3478;51.462;7.338;2023-05-21T10:02:44;21.60;99.90
6879;DHT22;3478;51.462;7.338;2023-05-21T10:07:49;21.70;99.90
6879;DHT22;3478;51.462;7.338;2023-05-21T10:12:56;22.00;99.90
6879;DHT22;3478;51.462;7.338;2023-05-21T10:18:00;22.00;99.90
6879;DHT22;3478;51.462;7.338;2023-05-21T10:23:04;21.60;99.90
6879;DHT22;3478;51.462;7.338;2023-05-21T10:28:07;21.30;99.90
6879;DHT22;3478;51.462;7.338;2023-05-21T10:33:10;21.10;99.90
6879;DHT22;3478;51.462;7.338;2023-05-21T10:38:15;21.20;99.90
6879;DHT22;3478;51.462;7.338;2023-05-21T10:43:40;21.50;99.90
6879;DHT22;3478;51.462;7.338;2023-05-21T10:48:57;21.80;99.90
6879;DHT22;3478;51.462;7.338;2023-05-21T10:54:25;22.00;99.90
6879;DHT22;3478;51.462;7.338;2023-05-21T10:59:38;22.20;99.90
6879;DHT22;3478;51.462;7.338;2023-05-21T11:04:41;22.40;99.90
6879;DHT22;3478;51.462;7.338;2023-05-21T11:09:45;22.40;99.90
6879;DHT22;3478;51.462;7.338;2023-05-21T11:14:56;22.20;99.90
6879;DHT22;3478;51.462;7.338;2023-05-21T11:20:03;22.20;99.90
6879;DHT22;3478;51.462;7.338;2023-05-21T11:25:07;22.50;99.90
6879;DHT22;3478;51.462;7.338;2023-05-21T11:30:16;22.40;99.90
6879;DHT22;3478;51.462;7.338;2023-05-21T11:35:21;22.60;99.90
6879;DHT22;3478;51.462;7.338;2023-05-21T11:40:24;22.90;99.90
6879;DHT22;3478;51.462;7.338;2023-05-21T11:45:31;23.20;99.90
6879;DHT22;3478;51.462;7.338;2023-05-21T11:50:33;23.80;99.90
6879;DHT22;3478;51.462;7.338;2023-05-21T11:55:37;24.40;99.90
6879;DHT22;3478;51.462;7.338;2023-05-21T12:00:40;25.10;99.90
6879;DHT22;3478;51.462;7.338;2023-05-21T12:05:46;25.60;99.90
6879;DHT22;3478;51.462;7.338;2023-05-21T12:10:48;26.00;99.90
6879;DHT22;3478;51.462;7.338;2023-05-21T12:15:51;25.70;99.90
6879;DHT22;3478;51.462;7.338;2023-05-21T12:20:53;25.90;99.90
6879;DHT22;3478;51.462;7.338;2023-05-21T12:25:55;25.80;99.90
6879;DHT22;3478;51.462;7.338;2023-05-21T12:30:58;25.70;99.90
6879;DHT22;3478;51.462;7.338;2023-05-21T12:36:00;25.50;99.90
6879;DHT22;3478;51.462;7.338;2023-05-21T12:41:04;25.20;99.90
6879;DHT22;3478;51.462;7.338;2023-05-21T12:46:09;25.20;99.90
6879;DHT22;3478;51.462;7.338;2023-05-21T12:51:11;25.30;99.90
6879;DHT22;3478;51.462;7.338;2023-05-21T12:56:14;25.60;99.90
6879;DHT22;3478;51.462;7.338;2023-05-21T13:01:20;26.40;99.90
6879;DHT22;3478;51.462;7.338;2023-05-21T13:06:22;27.80;99.90
6879;DHT22;3478;51.462;7.338;2023-05-21T13:11:25;27.90;99.70
6879;DHT22;3478;51.462;7.338;2023-05-21T13:16:29;27.50;99.90
6879;DHT22;3478;51.462;7.338;2023-05-21T13:21:30;27.70;99.80
6879;DHT22;3478;51.462;7.338;2023-05-21T13:26:32;27.50;98.50
6879;DHT22;3478;51.462;7.338;2023-05-21T13:31:35;28.00;99.70
6879;DHT22;3478;51.462;7.338;2023-05-21T13:36:37;28.60;97.70
6879;DHT22;3478;51.462;7.338;2023-05-21T13:41:39;29.80;97.00
6879;DHT22;3478;51.462;7.338;2023-05-21T13:46:43;30.60;94.80
6879;DHT22;3478;51.462;7.338;2023-05-21T13:51:45;30.80;92.10
6879;DHT22;3478;51.462;7.338;2023-05-21T13:56:47;30.20;91.80
6879;DHT22;3478;51.462;7.338;2023-05-21T14:01:50;30.60;91.70
6879;DHT22;3478;51.462;7.338;2023-05-21T14:06:52;31.10;90.50
6879;DHT22;3478;51.462;7.338;2023-05-21T14:11:54;31.90;89.00
6879;DHT22;3478;51.462;7.338;2023-05-21T14:16:58;32.30;87.60
6879;DHT22;3478;51.462;7.338;2023-05-21T14:22:00;32.80;85.90
6879;DHT22;3478;51.462;7.338;2023-05-21T14:27:01;32.50;80.10
6879;DHT22;3478;51.462;7.338;2023-05-21T14:32:06;31.50;80.80
6879;DHT22;3478;51.462;7.338;2023-05-21T14:37:09;31.10;80.80
6879;DHT22;3478;51.462;7.338;2023-05-21T14:42:11;30.60;82.50
6879;DHT22;3478;51.462;7.338;2023-05-21T14:47:14;30.50;84.10
6879;DHT22;3478;51.462;7.338;2023-05-21T14:52:16;30.50;81.10
6879;DHT22;3478;51.462;7.338;2023-05-21T14:57:18;29.80;90.60
6879;DHT22;3478;51.462;7.338;2023-05-21T15:02:21;29.00;91.30
6879;DHT22;3478;51.462;7.338;2023-05-21T15:07:23;28.70;93.10
6879;DHT22;3478;51.462;7.338;2023-05-21T15:12:25;28.30;91.80
6879;DHT22;3478;51.462;7.338;2023-05-21T15:17:29;28.20;93.50
6879;DHT22;3478;51.462;7.338;2023-05-21T15:22:31;28.60;91.60
6879;DHT22;3478;51.462;7.338;2023-05-21T15:27:33;28.80;92.50
6879;DHT22;3478;51.462;7.338;2023-05-21T15:32:36;29.50;94.10
6879;DHT22;3478;51.462;7.338;2023-05-21T15:37:38;30.20;91.30
6879;DHT22;3478;51.462;7.338;2023-05-21T15:42:40;30.70;89.40
6879;DHT22;3478;51.462;7.338;2023-05-21T15:47:44;30.80;88.90
6879;DHT22;3478;51.462;7.338;2023-05-21T15:52:45;30.60;89.40
6879;DHT22;3478;51.462;7.338;2023-05-21T15:57:47;30.70;90.40
6879;DHT22;3478;51.462;7.338;2023-05-21T16:02:51;30.70;88.50
6879;DHT22;3478;51.462;7.338;2023-05-21T16:07:53;30.70;88.10
6879;DHT22;3478;51.462;7.338;2023-05-21T16:12:54;31.00;88.10
6879;DHT22;3478;51.462;7.338;2023-05-21T16:17:58;31.00;89.10
6879;DHT22;3478;51.462;7.338;2023-05-21T16:23:00;30.80;87.10
6879;DHT22;3478;51.462;7.338;2023-05-21T16:28:03;30.90;84.60
6879;DHT22;3478;51.462;7.338;2023-05-21T16:33:06;31.00;84.10
6879;DHT22;3478;51.462;7.338;2023-05-21T16:38:08;30.70;85.80
6879;DHT22;3478;51.462;7.338;2023-05-21T16:43:10;30.60;87.20
6879;DHT22;3478;51.462;7.338;2023-05-21T16:48:14;30.50;85.10
6879;DHT22;3478;51.462;7.338;2023-05-21T16:53:16;30.10;86.20
6879;DHT22;3478;51.462;7.338;2023-05-21T16:58:18;29.20;87.00
6879;DHT22;3478;51.462;7.338;2023-05-21T17:03:21;28.30;90.30
6879;DHT22;3478;51.462;7.338;2023-05-21T17:08:23;27.60;91.00
6879;DHT22;3478;51.462;7.338;2023-05-21T17:13:25;26.90;92.60
6879;DHT22;3478;51.462;7.338;2023-05-21T17:18:28;26.20;93.90
6879;DHT22;3478;51.462;7.338;2023-05-21T17:23:30;25.60;95.40
6879;DHT22;3478;51.462;7.338;2023-05-21T17:28:32;25.10;96.70
6879;DHT22;3478;51.462;7.338;2023-05-21T17:33:36;24.70;97.90
6879;DHT22;3478;51.462;7.338;2023-05-21T17:38:38;24.30;99.40
6879;DHT22;3478;51.462;7.338;2023-05-21T17:43:40;24.00;99.90
6879;DHT22;3478;51.462;7.338;2023-05-21T17:48:43;23.80;99.90
6879;DHT22;3478;51.462;7.338;2023-05-21T17:53:45;23.50;99.90
6879;DHT22;3478;51.462;7.338;2023-05-21T17:58:47;23.30;99.90
6879;DHT22;3478;51.462;7.338;2023-05-21T18:03:51;23.00;99.90
6879;DHT22;3478;51.462;7.338;2023-05-21T18:08:53;22.90;99.90
6879;DHT22;3478;51.462;7.338;2023-05-21T18:13:55;22.80;99.90
6879;DHT22;3478;51.462;7.338;2023-05-21T18:18:58;22.70;99.90
6879;DHT22;3478;51.462;7.338;2023-05-21T18:24:01;22.60;99.90
6879;DHT22;3478;51.462;7.338;2023-05-21T18:29:04;22.40;99.90
6879;DHT22;3478;51.462;7.338;2023-05-21T18:34:07;22.40;99.90
6879;DHT22;3478;51.462;7.338;2023-05-21T18:39:09;22.30;99.90
6879;DHT22;3478;51.462;7.338;2023-05-21T18:44:11;22.30;99.90
6879;DHT22;3478;51.462;7.338;2023-05-21T18:49:14;22.30;99.90
6879;DHT22;3478;51.462;7.338;2023-05-21T18:54:16;22.30;99.90
6879;DHT22;3478;51.462;7.338;2023-05-21T18:59:18;22.20;99.90
6879;DHT22;3478;51.462;7.338;2023-05-21T19:04:21;22.00;99.90
6879;DHT22;3478;51.462;7.338;2023-05-21T19:09:23;21.90;99.90
6879;DHT22;3478;51.462;7.338;2023-05-21T19:14:25;21.70;99.90
6879;DHT22;3478;51.462;7.338;2023-05-21T19:19:28;21.60;99.90
6879;DHT22;3478;51.462;7.338;2023-05-21T19:24:30;21.40;99.90
6879;DHT22;3478;51.462;7.338;2023-05-21T19:29:32;21.20;99.90
6879;DHT22;3478;51.462;7.338;2023-05-21T19:34:35;21.10;99.90
6879;DHT22;3478;51.462;7.338;2023-05-21T19:39:37;21.00;99.90
6879;DHT22;3478;51.462;7.338;2023-05-21T19:44:39;21.00;99.90
6879;DHT22;3478;51.462;7.338;2023-05-21T19:49:42;21.00;99.90
6879;DHT22;3478;51.462;7.338;2023-05-21T19:54:44;20.90;99.90
6879;DHT22;3478;51.462;7.338;2023-05-21T19:59:46;20.80;99.90
6879;DHT22;3478;51.462;7.338;2023-05-21T20:04:49;20.70;99.90
6879;DHT22;3478;51.462;7.338;2023-05-21T20:09:52;20.60;99.90
6879;DHT22;3478;51.462;7.338;2023-05-21T20:14:54;20.40;99.90
6879;DHT22;3478;51.462;7.338;2023-05-21T20:20:00;20.20;99.90
6879;DHT22;3478;51.462;7.338;2023-05-21T20:25:03;19.90;99.90
6879;DHT22;3478;51.462;7.338;2023-05-21T20:30:07;19.60;99.90
6879;DHT22;3478;51.462;7.338;2023-05-21T20:35:11;19.50;99.90
6879;DHT22;3478;51.462;7.338;2023-05-21T20:40:13;19.40;99.90
6879;DHT22;3478;51.462;7.338;2023-05-21T20:45:14;19.20;99.90
6879;DHT22;3478;51.462;7.338;2023-05-21T20:50:18;19.10;99.90
6879;DHT22;3478;51.462;7.338;2023-05-21T20:55:25;19.00;99.90
6879;DHT22;3478;51.462;7.338;2023-05-21T21:00:27;18.90;99.90
6879;DHT22;3478;51.462;7.338;2023-05-21T21:05:30;18.80;99.90
6879;DHT22;3478;51.462;7.338;2023-05-21T21:10:32;18.80;99.90
6879;DHT22;3478;51.462;7.338;2023-05-21T21:15:33;18.90;99.90
6879;DHT22;3478;51.462;7.338;2023-05-21T21:20:37;18.90;99.90
6879;DHT22;3478;51.462;7.338;2023-05-21T21:25:40;19.00;99.90
6879;DHT22;3478;51.462;7.338;2023-05-21T21:30:42;18.90;99.90
6879;DHT22;3478;51.462;7.338;2023-05-21T21:35:46;18.80;99.90
6879;DHT22;3478;51.462;7.338;2023-05-21T21:40:48;18.50;99.90
6879;DHT22;3478;51.462;7.338;2023-05-21T21:45:50;18.30;99.90
6879;DHT22;3478;51.462;7.338;2023-05-21T21:50:53;18.20;99.90
6879;DHT22;3478;51.462;7.338;2023-05-21T21:55:56;18.20;99.90
6879;DHT22;3478;51.462;7.338;2023-05-21T22:00:57;18.10;99.90
6879;DHT22;3478;51.462;7.338;2023-05-21T22:06:01;18.00;99.90
6879;DHT22;3478;51.462;7.338;2023-05-21T22:11:03;18.00;99.90
6879;DHT22;3478;51.462;7.338;2023-05-21T22:16:05;18.00;99.90
6879;DHT22;3478;51.462;7.338;2023-05-21T22:21:09;18.00;99.90
6879;DHT22;3478;51.462;7.338;2023-05-21T22:26:13;18.00;99.90
6879;DHT22;3478;51.462;7.338;2023-05-21T22:31:15;17.90;99.90
6879;DHT22;3478;51.462;7.338;2023-05-21T22:36:18;17.90;99.90
6879;DHT22;3478;51.462;7.338;2023-05-21T22:41:20;17.90;99.90
6879;DHT22;3478;51.462;7.338;2023-05-21T22:46:22;17.80;99.90
6879;DHT22;3478;51.462;7.338;2023-05-21T22:51:25;17.70;99.90
6879;DHT22;3478;51.462;7.338;2023-05-21T22:56:28;17.70;99.90
6879;DHT22;3478;51.462;7.338;2023-05-21T23:01:30;17.70;99.90
6879;DHT22;3478;51.462;7.338;2023-05-21T23:06:33;17.60;99.90
6879;DHT22;3478;51.462;7.338;2023-05-21T23:11:35;17.50;99.90
6879;DHT22;3478;51.462;7.338;2023-05-21T23:16:37;17.50;99.90
6879;DHT22;3478;51.462;7.338;2023-05-21T23:21:44;17.40;99.90
6879;DHT22;3478;51.462;7.338;2023-05-21T23:26:46;17.30;99.90
6879;DHT22;3478;51.462;7.338;2023-05-21T23:31:48;17.30;99.90
6879;DHT22;3478;51.462;7.338;2023-05-21T23:36:51;17.30;99.90
6879;DHT22;3478;51.462;7.338;2023-05-21T23:41:54;17.30;99.90
6879;DHT22;3478;51.462;7.338;2023-05-21T23:46:56;17.30;99.90
6879;DHT22;3478;51.462;7.338;2023-05-21T23:51:59;17.30;99.90
6879;DHT22;3478;51.462;7.338;2023-05-21T23:57:01;17.30;99.90
